SKBO2: Hominy C Bl Skiatook Lk Nr Skiatook, OK

                                SHEF ID:       SKBO2     Hominy Creek below Skiatook Lake
STATION TYPE:

PRECIP STAGE RIV-FLOW VOLTAGE BAT-LOAD
in ft cfs volt volt
Ccp-Rev Ccp-Rev Ccp-Rev Ccp-Rev Ccp-Rev
(America/Chicago)
04/14 00:00 0.00 6.56 58 13.17 12.81
04/14 01:00 0.00 6.57 59 13.18 12.81
04/14 02:00 0.00 6.56 58 13.18 12.81
04/14 03:00 0.00 6.56 58 13.19 12.81
04/14 04:00 0.00 6.56 58 13.18 12.82
04/14 05:00 0.00 6.57 59 13.17 12.82
04/14 06:00 0.00 6.56 58 13.19 12.81
04/14 07:00 0.00 6.56 58 13.17 12.82
04/14 08:00 0.00 6.56 58 13.17 12.81
04/14 09:00 0.00 6.55 57 13.19 12.84
04/14 10:00 0.00 6.55 57 14.12 13.19
04/14 11:00 0.00 6.55 57 13.72 13.13
04/14 12:00 0.00 6.55 57 13.72 13.05
04/14 13:00 0.00 6.55 57 13.69 13.09
04/14 14:00 0.00 6.55 57 13.70 13.09
04/14 15:00 0.00 6.55 57 13.65 13.08
04/14 16:00 0.00 6.55 57 13.59 13.06
04/14 17:00 0.00 6.55 57 13.56 13.03
04/14 18:00 0.00 6.55 57 13.50 13.00
04/14 19:00 0.00 6.56 58 13.48 12.97
04/14 20:00 0.00 6.56 58 13.45 12.94
04/14 21:00 0.00 6.56 58 13.18 12.82
04/14 22:00 ---- ---- ---- ---- ----
04/14 23:00 ---- ---- ---- ---- ----
Data processed at Mon 15Apr2024 02:04 GMT

Parsing this webpage?

Checkout our new Data API! CWMSDataAPI (CDA)

Timeseries IDs (TSIDs)

TSIDs used from left to right in the data table
SKIH.Precip-Inc.Total.1Hour.1Hour.Ccp-Rev
SKIH.Stage.Inst.1Hour.0.Ccp-Rev
SKIH.Flow.Inst.1Hour.0.Ccp-Rev
SKIH.Volt-Battery.Inst.1Hour.0.Ccp-Rev
SKIH.Volt-Battery Load.Inst.1Hour.0.Ccp-Rev

                            

All information presented herein is the property of the government of the United States of America and may be revised or deleted at any time without prior notice. Dissemination of this information without the expressed written consent of the Public Affairs Office, Tulsa District U.S. Army Corps of Engineers is strictly prohibited. These data are gathered electronically and, as presented, have NOT undergone any form of quality control. These data are NOT guaranteed to be valid or correct.